EPWR/WRO METAR and TAF weather

Enter ICAO airport designator
Station Type Date Time Source
EPWR METAR 2019/05/20 10:30 UTC NOAA

EPWR 201030Z 15006KT 110V180 9999 SCT012 BKN026 18/15 Q1002


Station Type Date Time Source
EPWR Decoded METAR 2019/05/20 10:30 UTC NOAA

Wroclaw Ii, Poland (EPWR) 51-06N 016-53E 121M
May 20, 2019 - 06:30 AM EDT / 2019.05.20 1030 UTC
Wind: from the SSE (150 degrees) at 7 MPH (6 KT) (direction variable):0
Visibility: greater than 7 mile(s):0
Sky conditions: mostly cloudy
Temperature: 64 F (18 C)
Dew Point: 59 F (15 C)
Relative Humidity: 82%
Pressure (altimeter): 29.59 in. Hg (1002 hPa)
ob: EPWR 201030Z 15006KT 110V180 9999 SCT012 BKN026 18/15 Q1002
cycle: 10

Station Type Date Time Source
EPWR TAF 2019/05/20 09:33 UTC NOAA

TAF TAF EPWR 200830Z 2009/2109 30003KT CAVOK PROB30
TEMPO 2009/2018 4000 SHRA BKN012 BKN040CB
BECMG 2010/2013 17010KT
BECMG 2021/2024 10005KT
TEMPO 2101/2104 3000 BR

Example: see airport list